sensor_id;sensor_type;location;lat;lon;timestamp;temperature;humidity
79711;DHT22;69465;51.630;6.570;2023-04-29T00:00:59;11.80;65.10
79711;DHT22;69465;51.630;6.570;2023-04-29T00:03:26;11.60;64.90
79711;DHT22;69465;51.630;6.570;2023-04-29T00:05:53;11.60;65.00
79711;DHT22;69465;51.630;6.570;2023-04-29T00:08:20;11.60;65.30
79711;DHT22;69465;51.630;6.570;2023-04-29T00:10:47;11.70;65.20
79711;DHT22;69465;51.630;6.570;2023-04-29T00:13:13;11.60;65.00
79711;DHT22;69465;51.630;6.570;2023-04-29T00:15:40;11.60;64.60
79711;DHT22;69465;51.630;6.570;2023-04-29T00:18:08;11.60;64.90
79711;DHT22;69465;51.630;6.570;2023-04-29T00:20:35;11.60;65.00
79711;DHT22;69465;51.630;6.570;2023-04-29T00:23:02;11.60;64.80
79711;DHT22;69465;51.630;6.570;2023-04-29T00:25:29;11.60;65.20
79711;DHT22;69465;51.630;6.570;2023-04-29T00:27:56;11.50;64.40
79711;DHT22;69465;51.630;6.570;2023-04-29T00:30:23;11.50;65.00
79711;DHT22;69465;51.630;6.570;2023-04-29T00:32:49;11.50;64.90
79711;DHT22;69465;51.630;6.570;2023-04-29T00:35:16;11.50;65.00
79711;DHT22;69465;51.630;6.570;2023-04-29T00:37:42;11.40;65.10
79711;DHT22;69465;51.630;6.570;2023-04-29T00:40:09;11.40;65.10
79711;DHT22;69465;51.630;6.570;2023-04-29T00:42:36;11.40;65.10
79711;DHT22;69465;51.630;6.570;2023-04-29T00:45:03;11.40;65.20
79711;DHT22;69465;51.630;6.570;2023-04-29T00:47:33;11.30;64.70
79711;DHT22;69465;51.630;6.570;2023-04-29T00:49:59;11.20;64.90
79711;DHT22;69465;51.630;6.570;2023-04-29T00:52:29;11.20;64.50
79711;DHT22;69465;51.630;6.570;2023-04-29T00:54:56;11.10;64.70
79711;DHT22;69465;51.630;6.570;2023-04-29T00:57:23;11.10;64.30
79711;DHT22;69465;51.630;6.570;2023-04-29T00:59:50;11.10;64.90
79711;DHT22;69465;51.630;6.570;2023-04-29T01:02:18;11.10;64.30
79711;DHT22;69465;51.630;6.570;2023-04-29T01:04:44;11.10;64.30
79711;DHT22;69465;51.630;6.570;2023-04-29T01:07:30;11.00;63.20
79711;DHT22;69465;51.630;6.570;2023-04-29T01:12:47;11.00;63.80
79711;DHT22;69465;51.630;6.570;2023-04-29T01:15:29;11.00;63.90
79711;DHT22;69465;51.630;6.570;2023-04-29T01:18:24;10.90;63.50
79711;DHT22;69465;51.630;6.570;2023-04-29T01:20:51;10.90;64.10
79711;DHT22;69465;51.630;6.570;2023-04-29T01:23:18;10.90;63.90
79711;DHT22;69465;51.630;6.570;2023-04-29T01:25:45;10.90;63.50
79711;DHT22;69465;51.630;6.570;2023-04-29T01:31:11;10.90;63.90
79711;DHT22;69465;51.630;6.570;2023-04-29T01:33:49;11.00;63.70
79711;DHT22;69465;51.630;6.570;2023-04-29T01:36:31;11.10;63.80
79711;DHT22;69465;51.630;6.570;2023-04-29T01:39:15;11.00;63.10
79711;DHT22;69465;51.630;6.570;2023-04-29T01:41:56;11.00;62.30
79711;DHT22;69465;51.630;6.570;2023-04-29T01:44:23;11.00;63.10
79711;DHT22;69465;51.630;6.570;2023-04-29T01:46:52;10.90;63.20
79711;DHT22;69465;51.630;6.570;2023-04-29T01:49:21;10.90;63.40
79711;DHT22;69465;51.630;6.570;2023-04-29T01:51:50;10.90;63.10
79711;DHT22;69465;51.630;6.570;2023-04-29T01:54:16;10.90;62.80
79711;DHT22;69465;51.630;6.570;2023-04-29T01:56:43;10.90;63.30
79711;DHT22;69465;51.630;6.570;2023-04-29T01:59:10;10.90;63.00
79711;DHT22;69465;51.630;6.570;2023-04-29T02:01:37;10.90;63.20
79711;DHT22;69465;51.630;6.570;2023-04-29T02:04:03;10.90;63.30
79711;DHT22;69465;51.630;6.570;2023-04-29T02:06:30;10.90;63.30
79711;DHT22;69465;51.630;6.570;2023-04-29T02:08:57;10.90;63.20
79711;DHT22;69465;51.630;6.570;2023-04-29T02:11:24;10.80;63.10
79711;DHT22;69465;51.630;6.570;2023-04-29T02:13:51;10.70;63.90
79711;DHT22;69465;51.630;6.570;2023-04-29T02:16:17;10.80;63.70
79711;DHT22;69465;51.630;6.570;2023-04-29T02:18:44;10.80;64.50
79711;DHT22;69465;51.630;6.570;2023-04-29T02:21:11;10.70;64.30
79711;DHT22;69465;51.630;6.570;2023-04-29T02:23:38;10.60;64.60
79711;DHT22;69465;51.630;6.570;2023-04-29T02:26:05;10.70;64.50
79711;DHT22;69465;51.630;6.570;2023-04-29T02:28:32;10.60;64.40
79711;DHT22;69465;51.630;6.570;2023-04-29T02:30:58;10.60;65.60
79711;DHT22;69465;51.630;6.570;2023-04-29T02:33:25;10.60;65.10
79711;DHT22;69465;51.630;6.570;2023-04-29T02:35:51;10.60;64.90
79711;DHT22;69465;51.630;6.570;2023-04-29T02:38:18;10.60;65.70
79711;DHT22;69465;51.630;6.570;2023-04-29T02:40:45;10.60;65.40
79711;DHT22;69465;51.630;6.570;2023-04-29T02:43:12;10.60;65.40
79711;DHT22;69465;51.630;6.570;2023-04-29T02:45:39;10.60;65.50
79711;DHT22;69465;51.630;6.570;2023-04-29T02:48:06;10.70;65.50
79711;DHT22;69465;51.630;6.570;2023-04-29T02:50:33;10.60;65.00
79711;DHT22;69465;51.630;6.570;2023-04-29T02:53:00;10.60;65.50
79711;DHT22;69465;51.630;6.570;2023-04-29T02:55:26;10.60;65.80
79711;DHT22;69465;51.630;6.570;2023-04-29T02:57:53;10.70;65.70
79711;DHT22;69465;51.630;6.570;2023-04-29T03:00:19;10.60;65.30
79711;DHT22;69465;51.630;6.570;2023-04-29T03:02:47;10.70;65.80
79711;DHT22;69465;51.630;6.570;2023-04-29T03:05:14;10.70;65.50
79711;DHT22;69465;51.630;6.570;2023-04-29T03:07:40;10.70;65.40
79711;DHT22;69465;51.630;6.570;2023-04-29T03:10:08;10.70;65.60
79711;DHT22;69465;51.630;6.570;2023-04-29T03:12:34;10.60;65.30
79711;DHT22;69465;51.630;6.570;2023-04-29T03:15:01;10.60;65.50
79711;DHT22;69465;51.630;6.570;2023-04-29T03:17:28;10.70;65.90
79711;DHT22;69465;51.630;6.570;2023-04-29T03:19:55;10.60;65.40
79711;DHT22;69465;51.630;6.570;2023-04-29T03:22:21;10.50;65.10
79711;DHT22;69465;51.630;6.570;2023-04-29T03:24:48;10.60;65.40
79711;DHT22;69465;51.630;6.570;2023-04-29T03:27:14;10.50;65.90
79711;DHT22;69465;51.630;6.570;2023-04-29T03:29:41;10.60;66.00
79711;DHT22;69465;51.630;6.570;2023-04-29T03:32:08;10.60;65.70
79711;DHT22;69465;51.630;6.570;2023-04-29T03:34:34;10.60;65.30
79711;DHT22;69465;51.630;6.570;2023-04-29T03:37:01;10.50;65.10
79711;DHT22;69465;51.630;6.570;2023-04-29T03:39:28;10.60;65.60
79711;DHT22;69465;51.630;6.570;2023-04-29T03:41:54;10.60;65.00
79711;DHT22;69465;51.630;6.570;2023-04-29T03:44:21;10.60;64.90
79711;DHT22;69465;51.630;6.570;2023-04-29T03:46:48;10.60;65.00
79711;DHT22;69465;51.630;6.570;2023-04-29T03:49:14;10.70;64.50
79711;DHT22;69465;51.630;6.570;2023-04-29T03:51:41;10.70;64.70
79711;DHT22;69465;51.630;6.570;2023-04-29T03:54:08;10.70;64.50
79711;DHT22;69465;51.630;6.570;2023-04-29T03:56:35;10.70;64.30
79711;DHT22;69465;51.630;6.570;2023-04-29T03:59:01;10.70;64.10
79711;DHT22;69465;51.630;6.570;2023-04-29T04:01:28;10.70;64.50
79711;DHT22;69465;51.630;6.570;2023-04-29T04:03:55;10.70;64.80
79711;DHT22;69465;51.630;6.570;2023-04-29T04:06:22;10.70;64.90
79711;DHT22;69465;51.630;6.570;2023-04-29T04:08:49;10.70;64.30
79711;DHT22;69465;51.630;6.570;2023-04-29T04:11:15;10.70;64.50
79711;DHT22;69465;51.630;6.570;2023-04-29T04:13:42;10.70;64.50
79711;DHT22;69465;51.630;6.570;2023-04-29T04:16:10;10.70;64.00
79711;DHT22;69465;51.630;6.570;2023-04-29T04:18:37;10.70;64.40
79711;DHT22;69465;51.630;6.570;2023-04-29T04:21:08;10.80;64.50
79711;DHT22;69465;51.630;6.570;2023-04-29T04:23:34;10.80;64.40
79711;DHT22;69465;51.630;6.570;2023-04-29T04:26:01;10.80;64.00
79711;DHT22;69465;51.630;6.570;2023-04-29T04:28:28;10.90;63.90
79711;DHT22;69465;51.630;6.570;2023-04-29T04:30:55;10.90;64.20
79711;DHT22;69465;51.630;6.570;2023-04-29T04:33:21;10.90;62.80
79711;DHT22;69465;51.630;6.570;2023-04-29T04:35:48;10.80;62.90
79711;DHT22;69465;51.630;6.570;2023-04-29T04:38:15;10.80;62.80
79711;DHT22;69465;51.630;6.570;2023-04-29T04:40:41;10.80;62.50
79711;DHT22;69465;51.630;6.570;2023-04-29T04:43:08;10.80;62.70
79711;DHT22;69465;51.630;6.570;2023-04-29T04:45:35;10.70;62.50
79711;DHT22;69465;51.630;6.570;2023-04-29T04:48:02;10.70;62.70
79711;DHT22;69465;51.630;6.570;2023-04-29T04:50:29;10.70;62.40
79711;DHT22;69465;51.630;6.570;2023-04-29T04:52:56;10.80;62.80
79711;DHT22;69465;51.630;6.570;2023-04-29T04:55:23;10.80;62.50
79711;DHT22;69465;51.630;6.570;2023-04-29T04:57:50;10.80;62.00
79711;DHT22;69465;51.630;6.570;2023-04-29T05:00:16;10.70;62.00
79711;DHT22;69465;51.630;6.570;2023-04-29T05:02:43;10.70;62.20
79711;DHT22;69465;51.630;6.570;2023-04-29T05:05:10;10.70;62.20
79711;DHT22;69465;51.630;6.570;2023-04-29T05:07:36;10.80;62.00
79711;DHT22;69465;51.630;6.570;2023-04-29T05:10:04;10.80;62.50
79711;DHT22;69465;51.630;6.570;2023-04-29T05:12:31;10.80;61.90
79711;DHT22;69465;51.630;6.570;2023-04-29T05:14:57;10.80;62.10
79711;DHT22;69465;51.630;6.570;2023-04-29T05:17:24;10.80;62.40
79711;DHT22;69465;51.630;6.570;2023-04-29T05:19:51;10.80;61.90
79711;DHT22;69465;51.630;6.570;2023-04-29T05:22:18;10.80;62.10
79711;DHT22;69465;51.630;6.570;2023-04-29T05:24:45;10.70;61.40
79711;DHT22;69465;51.630;6.570;2023-04-29T05:27:11;10.70;61.90
79711;DHT22;69465;51.630;6.570;2023-04-29T05:29:38;10.70;62.50
79711;DHT22;69465;51.630;6.570;2023-04-29T05:32:05;10.80;61.80
79711;DHT22;69465;51.630;6.570;2023-04-29T05:34:31;10.80;61.80
79711;DHT22;69465;51.630;6.570;2023-04-29T05:36:58;10.80;61.90
79711;DHT22;69465;51.630;6.570;2023-04-29T05:39:24;10.80;61.20
79711;DHT22;69465;51.630;6.570;2023-04-29T05:41:51;10.80;61.20
79711;DHT22;69465;51.630;6.570;2023-04-29T05:44:18;10.80;61.20
79711;DHT22;69465;51.630;6.570;2023-04-29T05:46:44;10.90;61.40
79711;DHT22;69465;51.630;6.570;2023-04-29T05:49:11;10.90;60.60
79711;DHT22;69465;51.630;6.570;2023-04-29T05:51:37;10.90;61.40
79711;DHT22;69465;51.630;6.570;2023-04-29T05:54:04;10.90;61.10
79711;DHT22;69465;51.630;6.570;2023-04-29T05:56:31;10.90;60.80
79711;DHT22;69465;51.630;6.570;2023-04-29T05:58:57;10.90;61.70
79711;DHT22;69465;51.630;6.570;2023-04-29T06:01:24;11.00;61.30
79711;DHT22;69465;51.630;6.570;2023-04-29T06:03:51;11.00;61.10
79711;DHT22;69465;51.630;6.570;2023-04-29T06:06:17;11.00;61.20
79711;DHT22;69465;51.630;6.570;2023-04-29T06:08:44;11.00;60.30
79711;DHT22;69465;51.630;6.570;2023-04-29T06:11:11;11.00;60.40
79711;DHT22;69465;51.630;6.570;2023-04-29T06:13:37;11.00;61.10
79711;DHT22;69465;51.630;6.570;2023-04-29T06:16:04;11.10;61.00
79711;DHT22;69465;51.630;6.570;2023-04-29T06:18:31;11.10;60.00
79711;DHT22;69465;51.630;6.570;2023-04-29T06:20:58;11.20;60.90
79711;DHT22;69465;51.630;6.570;2023-04-29T06:23:25;11.20;60.00
79711;DHT22;69465;51.630;6.570;2023-04-29T06:25:51;11.30;60.10
79711;DHT22;69465;51.630;6.570;2023-04-29T06:28:18;11.40;60.20
79711;DHT22;69465;51.630;6.570;2023-04-29T06:30:45;11.50;60.00
79711;DHT22;69465;51.630;6.570;2023-04-29T06:33:12;11.60;60.30
79711;DHT22;69465;51.630;6.570;2023-04-29T06:35:39;11.60;59.10
79711;DHT22;69465;51.630;6.570;2023-04-29T06:38:05;11.70;59.40
79711;DHT22;69465;51.630;6.570;2023-04-29T06:40:32;11.80;58.70
79711;DHT22;69465;51.630;6.570;2023-04-29T06:42:58;11.70;58.20
79711;DHT22;69465;51.630;6.570;2023-04-29T06:45:25;11.70;58.60
79711;DHT22;69465;51.630;6.570;2023-04-29T06:47:51;11.70;59.20
79711;DHT22;69465;51.630;6.570;2023-04-29T06:50:18;11.70;59.20
79711;DHT22;69465;51.630;6.570;2023-04-29T06:52:45;11.70;58.80
79711;DHT22;69465;51.630;6.570;2023-04-29T06:55:12;11.70;58.90
79711;DHT22;69465;51.630;6.570;2023-04-29T06:57:38;11.70;58.50
79711;DHT22;69465;51.630;6.570;2023-04-29T07:00:05;11.70;58.80
79711;DHT22;69465;51.630;6.570;2023-04-29T07:02:32;11.70;58.80
79711;DHT22;69465;51.630;6.570;2023-04-29T07:04:58;11.70;57.20
79711;DHT22;69465;51.630;6.570;2023-04-29T07:07:25;11.70;57.80
79711;DHT22;69465;51.630;6.570;2023-04-29T07:09:52;11.60;58.40
79711;DHT22;69465;51.630;6.570;2023-04-29T07:12:19;11.60;59.60
79711;DHT22;69465;51.630;6.570;2023-04-29T07:14:46;11.60;58.30
79711;DHT22;69465;51.630;6.570;2023-04-29T07:17:12;11.60;58.20
79711;DHT22;69465;51.630;6.570;2023-04-29T07:19:39;11.60;59.30
79711;DHT22;69465;51.630;6.570;2023-04-29T07:22:06;11.50;58.90
79711;DHT22;69465;51.630;6.570;2023-04-29T07:24:33;11.50;59.00
79711;DHT22;69465;51.630;6.570;2023-04-29T07:26:59;11.60;59.20
79711;DHT22;69465;51.630;6.570;2023-04-29T07:29:26;11.60;59.00
79711;DHT22;69465;51.630;6.570;2023-04-29T07:31:52;11.60;59.30
79711;DHT22;69465;51.630;6.570;2023-04-29T07:34:19;11.60;59.50
79711;DHT22;69465;51.630;6.570;2023-04-29T07:36:46;11.60;59.30
79711;DHT22;69465;51.630;6.570;2023-04-29T07:39:12;11.70;59.20
79711;DHT22;69465;51.630;6.570;2023-04-29T07:41:39;11.70;59.00
79711;DHT22;69465;51.630;6.570;2023-04-29T07:44:05;11.70;58.70
79711;DHT22;69465;51.630;6.570;2023-04-29T07:46:32;11.80;58.00
79711;DHT22;69465;51.630;6.570;2023-04-29T07:48:58;11.70;58.50
79711;DHT22;69465;51.630;6.570;2023-04-29T07:51:25;11.80;58.60
79711;DHT22;69465;51.630;6.570;2023-04-29T07:53:51;11.80;58.30
79711;DHT22;69465;51.630;6.570;2023-04-29T07:56:18;11.80;57.60
79711;DHT22;69465;51.630;6.570;2023-04-29T07:58:44;11.90;57.60
79711;DHT22;69465;51.630;6.570;2023-04-29T08:01:11;11.90;58.60
79711;DHT22;69465;51.630;6.570;2023-04-29T08:03:38;11.90;57.90
79711;DHT22;69465;51.630;6.570;2023-04-29T08:06:07;11.90;58.50
79711;DHT22;69465;51.630;6.570;2023-04-29T08:08:34;11.90;58.10
79711;DHT22;69465;51.630;6.570;2023-04-29T08:11:04;11.90;57.60
79711;DHT22;69465;51.630;6.570;2023-04-29T08:13:30;12.00;58.00
79711;DHT22;69465;51.630;6.570;2023-04-29T08:15:57;12.00;57.90
79711;DHT22;69465;51.630;6.570;2023-04-29T08:18:24;12.00;57.60
79711;DHT22;69465;51.630;6.570;2023-04-29T08:20:50;12.00;58.00
79711;DHT22;69465;51.630;6.570;2023-04-29T08:23:17;12.00;56.90
79711;DHT22;69465;51.630;6.570;2023-04-29T08:25:44;12.00;56.90
79711;DHT22;69465;51.630;6.570;2023-04-29T08:28:11;12.00;57.60
79711;DHT22;69465;51.630;6.570;2023-04-29T08:30:39;11.90;56.80
79711;DHT22;69465;51.630;6.570;2023-04-29T08:33:06;11.90;57.30
79711;DHT22;69465;51.630;6.570;2023-04-29T08:35:33;11.80;57.40
79711;DHT22;69465;51.630;6.570;2023-04-29T08:37:59;11.80;57.10
79711;DHT22;69465;51.630;6.570;2023-04-29T08:40:26;11.90;57.10
79711;DHT22;69465;51.630;6.570;2023-04-29T08:42:53;11.90;57.30
79711;DHT22;69465;51.630;6.570;2023-04-29T08:45:22;12.00;57.50
79711;DHT22;69465;51.630;6.570;2023-04-29T08:47:50;12.20;57.70
79711;DHT22;69465;51.630;6.570;2023-04-29T08:50:17;12.40;57.40
79711;DHT22;69465;51.630;6.570;2023-04-29T08:52:43;12.50;56.00
79711;DHT22;69465;51.630;6.570;2023-04-29T08:55:10;12.50;55.80
79711;DHT22;69465;51.630;6.570;2023-04-29T08:57:38;12.50;54.80
79711;DHT22;69465;51.630;6.570;2023-04-29T09:00:07;12.80;56.10
79711;DHT22;69465;51.630;6.570;2023-04-29T09:02:46;12.90;55.20
79711;DHT22;69465;51.630;6.570;2023-04-29T09:05:13;13.00;54.00
79711;DHT22;69465;51.630;6.570;2023-04-29T09:07:40;13.10;53.80
79711;DHT22;69465;51.630;6.570;2023-04-29T09:10:07;13.10;54.10
79711;DHT22;69465;51.630;6.570;2023-04-29T09:12:34;13.20;53.50
79711;DHT22;69465;51.630;6.570;2023-04-29T09:15:02;13.30;54.80
79711;DHT22;69465;51.630;6.570;2023-04-29T09:20:28;13.40;52.80
79711;DHT22;69465;51.630;6.570;2023-04-29T09:23:02;13.60;53.00
79711;DHT22;69465;51.630;6.570;2023-04-29T09:25:28;13.70;53.00
79711;DHT22;69465;51.630;6.570;2023-04-29T09:27:56;13.90;53.30
79711;DHT22;69465;51.630;6.570;2023-04-29T09:30:24;14.00;52.00
79711;DHT22;69465;51.630;6.570;2023-04-29T09:33:07;14.10;51.60
79711;DHT22;69465;51.630;6.570;2023-04-29T09:35:34;14.10;51.50
79711;DHT22;69465;51.630;6.570;2023-04-29T09:40:38;14.20;51.60
79711;DHT22;69465;51.630;6.570;2023-04-29T09:43:23;14.20;50.80
79711;DHT22;69465;51.630;6.570;2023-04-29T09:45:49;14.20;50.90
79711;DHT22;69465;51.630;6.570;2023-04-29T09:48:16;14.00;50.40
79711;DHT22;69465;51.630;6.570;2023-04-29T09:50:43;14.00;51.10
79711;DHT22;69465;51.630;6.570;2023-04-29T09:53:28;14.00;51.40
79711;DHT22;69465;51.630;6.570;2023-04-29T09:56:00;14.00;51.20
79711;DHT22;69465;51.630;6.570;2023-04-29T09:58:29;14.00;50.90
79711;DHT22;69465;51.630;6.570;2023-04-29T10:00:58;14.10;50.70
79711;DHT22;69465;51.630;6.570;2023-04-29T10:03:30;14.10;51.10
79711;DHT22;69465;51.630;6.570;2023-04-29T10:05:57;14.20;51.00
79711;DHT22;69465;51.630;6.570;2023-04-29T10:08:26;14.30;49.90
79711;DHT22;69465;51.630;6.570;2023-04-29T10:11:00;14.50;50.10
79711;DHT22;69465;51.630;6.570;2023-04-29T10:13:27;14.70;51.10
79711;DHT22;69465;51.630;6.570;2023-04-29T10:16:27;14.80;50.70
79711;DHT22;69465;51.630;6.570;2023-04-29T10:18:55;15.10;49.30
79711;DHT22;69465;51.630;6.570;2023-04-29T10:21:29;15.20;49.50
79711;DHT22;69465;51.630;6.570;2023-04-29T10:23:57;15.40;49.90
79711;DHT22;69465;51.630;6.570;2023-04-29T10:26:27;15.70;49.90
79711;DHT22;69465;51.630;6.570;2023-04-29T10:28:58;16.00;45.70
79711;DHT22;69465;51.630;6.570;2023-04-29T10:31:26;16.10;48.30
79711;DHT22;69465;51.630;6.570;2023-04-29T10:33:56;16.30;46.00
79711;DHT22;69465;51.630;6.570;2023-04-29T10:36:28;16.60;48.00
79711;DHT22;69465;51.630;6.570;2023-04-29T10:38:58;16.80;45.70
79711;DHT22;69465;51.630;6.570;2023-04-29T10:41:28;17.30;45.20
79711;DHT22;69465;51.630;6.570;2023-04-29T10:43:58;17.60;45.70
79711;DHT22;69465;51.630;6.570;2023-04-29T10:46:25;18.10;44.20
79711;DHT22;69465;51.630;6.570;2023-04-29T10:49:02;18.30;43.90
79711;DHT22;69465;51.630;6.570;2023-04-29T10:51:31;18.50;43.10
79711;DHT22;69465;51.630;6.570;2023-04-29T10:56:37;18.90;40.30
79711;DHT22;69465;51.630;6.570;2023-04-29T10:59:04;18.90;40.80
79711;DHT22;69465;51.630;6.570;2023-04-29T11:04:09;19.90;39.40
79711;DHT22;69465;51.630;6.570;2023-04-29T11:09:06;20.90;35.90
79711;DHT22;69465;51.630;6.570;2023-04-29T11:14:13;21.60;36.00
79711;DHT22;69465;51.630;6.570;2023-04-29T11:16:47;21.20;37.80
79711;DHT22;69465;51.630;6.570;2023-04-29T11:19:15;20.90;36.20
79711;DHT22;69465;51.630;6.570;2023-04-29T11:21:44;20.70;36.40
79711;DHT22;69465;51.630;6.570;2023-04-29T11:24:11;20.90;35.00
79711;DHT22;69465;51.630;6.570;2023-04-29T11:26:38;21.10;35.50
79711;DHT22;69465;51.630;6.570;2023-04-29T11:29:04;20.90;35.00
79711;DHT22;69465;51.630;6.570;2023-04-29T11:31:33;20.50;37.10
79711;DHT22;69465;51.630;6.570;2023-04-29T11:34:00;20.10;37.00
79711;DHT22;69465;51.630;6.570;2023-04-29T11:36:27;19.50;38.50
79711;DHT22;69465;51.630;6.570;2023-04-29T11:38:53;19.10;38.10
79711;DHT22;69465;51.630;6.570;2023-04-29T11:41:20;19.00;38.70
79711;DHT22;69465;51.630;6.570;2023-04-29T11:43:53;19.00;39.70
79711;DHT22;69465;51.630;6.570;2023-04-29T11:46:20;19.20;38.80
79711;DHT22;69465;51.630;6.570;2023-04-29T11:48:47;19.40;37.00
79711;DHT22;69465;51.630;6.570;2023-04-29T11:51:15;19.30;37.50
79711;DHT22;69465;51.630;6.570;2023-04-29T11:53:42;19.20;38.80
79711;DHT22;69465;51.630;6.570;2023-04-29T11:56:09;19.20;38.80
79711;DHT22;69465;51.630;6.570;2023-04-29T11:58:36;19.20;37.90
79711;DHT22;69465;51.630;6.570;2023-04-29T12:01:04;19.30;37.30
79711;DHT22;69465;51.630;6.570;2023-04-29T12:03:31;19.60;36.90
79711;DHT22;69465;51.630;6.570;2023-04-29T12:06:00;19.60;35.70
79711;DHT22;69465;51.630;6.570;2023-04-29T12:08:28;19.50;38.60
79711;DHT22;69465;51.630;6.570;2023-04-29T12:10:57;19.10;36.90
79711;DHT22;69465;51.630;6.570;2023-04-29T12:13:26;18.90;38.60
79711;DHT22;69465;51.630;6.570;2023-04-29T12:15:53;18.50;35.70
79711;DHT22;69465;51.630;6.570;2023-04-29T12:18:21;18.20;37.90
79711;DHT22;69465;51.630;6.570;2023-04-29T12:20:48;18.10;39.80
79711;DHT22;69465;51.630;6.570;2023-04-29T12:23:18;17.90;39.80
79711;DHT22;69465;51.630;6.570;2023-04-29T12:25:50;18.00;40.10
79711;DHT22;69465;51.630;6.570;2023-04-29T12:28:18;18.10;40.50
79711;DHT22;69465;51.630;6.570;2023-04-29T12:30:49;18.20;41.50
79711;DHT22;69465;51.630;6.570;2023-04-29T12:33:19;18.30;38.00
79711;DHT22;69465;51.630;6.570;2023-04-29T12:35:50;18.20;39.60
79711;DHT22;69465;51.630;6.570;2023-04-29T12:40:50;17.90;39.50
79711;DHT22;69465;51.630;6.570;2023-04-29T12:43:17;17.80;40.60
79711;DHT22;69465;51.630;6.570;2023-04-29T12:45:43;17.70;41.60
79711;DHT22;69465;51.630;6.570;2023-04-29T12:48:11;17.70;40.80
79711;DHT22;69465;51.630;6.570;2023-04-29T12:50:52;17.70;41.90
79711;DHT22;69465;51.630;6.570;2023-04-29T12:53:18;17.50;40.70
79711;DHT22;69465;51.630;6.570;2023-04-29T12:55:45;17.40;39.80
79711;DHT22;69465;51.630;6.570;2023-04-29T12:58:12;17.50;41.80
79711;DHT22;69465;51.630;6.570;2023-04-29T13:00:38;17.50;40.40
79711;DHT22;69465;51.630;6.570;2023-04-29T13:03:05;17.70;40.60
79711;DHT22;69465;51.630;6.570;2023-04-29T13:05:32;17.80;40.10
79711;DHT22;69465;51.630;6.570;2023-04-29T13:07:58;17.90;38.40
79711;DHT22;69465;51.630;6.570;2023-04-29T13:10:25;18.20;38.70
79711;DHT22;69465;51.630;6.570;2023-04-29T13:12:52;18.40;38.10
79711;DHT22;69465;51.630;6.570;2023-04-29T13:15:19;18.60;38.30
79711;DHT22;69465;51.630;6.570;2023-04-29T13:17:46;18.60;38.40
79711;DHT22;69465;51.630;6.570;2023-04-29T13:20:13;18.70;38.00
79711;DHT22;69465;51.630;6.570;2023-04-29T13:22:40;18.80;38.50
79711;DHT22;69465;51.630;6.570;2023-04-29T13:25:07;18.90;36.60
79711;DHT22;69465;51.630;6.570;2023-04-29T13:27:34;19.10;36.60
79711;DHT22;69465;51.630;6.570;2023-04-29T13:30:01;19.10;36.60
79711;DHT22;69465;51.630;6.570;2023-04-29T13:32:28;19.10;36.50
79711;DHT22;69465;51.630;6.570;2023-04-29T13:35:11;19.20;37.20
79711;DHT22;69465;51.630;6.570;2023-04-29T13:37:38;19.20;36.20
79711;DHT22;69465;51.630;6.570;2023-04-29T13:40:05;19.30;36.40
79711;DHT22;69465;51.630;6.570;2023-04-29T13:42:33;19.10;37.00
79711;DHT22;69465;51.630;6.570;2023-04-29T13:45:12;18.80;37.60
79711;DHT22;69465;51.630;6.570;2023-04-29T13:47:42;18.40;36.20
79711;DHT22;69465;51.630;6.570;2023-04-29T13:50:28;18.10;37.80
79711;DHT22;69465;51.630;6.570;2023-04-29T13:52:58;17.80;38.40
79711;DHT22;69465;51.630;6.570;2023-04-29T13:55:28;17.70;37.50
79711;DHT22;69465;51.630;6.570;2023-04-29T13:58:14;17.60;37.80
79711;DHT22;69465;51.630;6.570;2023-04-29T14:01:01;17.50;38.50
79711;DHT22;69465;51.630;6.570;2023-04-29T14:03:30;17.50;39.40
79711;DHT22;69465;51.630;6.570;2023-04-29T14:06:01;17.60;39.00
79711;DHT22;69465;51.630;6.570;2023-04-29T14:08:27;17.70;40.60
79711;DHT22;69465;51.630;6.570;2023-04-29T14:10:54;18.00;39.20
79711;DHT22;69465;51.630;6.570;2023-04-29T14:13:20;18.20;39.30
79711;DHT22;69465;51.630;6.570;2023-04-29T14:15:47;18.40;38.50
79711;DHT22;69465;51.630;6.570;2023-04-29T14:18:13;18.70;36.90
79711;DHT22;69465;51.630;6.570;2023-04-29T14:20:40;19.00;38.70
79711;DHT22;69465;51.630;6.570;2023-04-29T14:23:06;19.20;38.80
79711;DHT22;69465;51.630;6.570;2023-04-29T14:25:33;19.30;35.10
79711;DHT22;69465;51.630;6.570;2023-04-29T14:28:00;19.50;34.90
79711;DHT22;69465;51.630;6.570;2023-04-29T14:30:26;19.70;32.90
79711;DHT22;69465;51.630;6.570;2023-04-29T14:32:53;19.70;32.30
79711;DHT22;69465;51.630;6.570;2023-04-29T14:35:20;19.70;34.00
79711;DHT22;69465;51.630;6.570;2023-04-29T14:37:46;19.60;35.80
79711;DHT22;69465;51.630;6.570;2023-04-29T14:40:13;19.40;35.50
79711;DHT22;69465;51.630;6.570;2023-04-29T14:42:40;19.20;34.00
79711;DHT22;69465;51.630;6.570;2023-04-29T14:45:07;19.00;37.00
79711;DHT22;69465;51.630;6.570;2023-04-29T14:47:34;19.00;36.60
79711;DHT22;69465;51.630;6.570;2023-04-29T14:50:01;19.00;35.90
79711;DHT22;69465;51.630;6.570;2023-04-29T14:52:28;19.10;35.50
79711;DHT22;69465;51.630;6.570;2023-04-29T14:54:54;19.10;36.60
79711;DHT22;69465;51.630;6.570;2023-04-29T14:57:21;19.20;36.70
79711;DHT22;69465;51.630;6.570;2023-04-29T14:59:47;19.00;34.00
79711;DHT22;69465;51.630;6.570;2023-04-29T15:02:14;19.00;33.70
79711;DHT22;69465;51.630;6.570;2023-04-29T15:04:41;18.90;35.40
79711;DHT22;69465;51.630;6.570;2023-04-29T15:07:08;18.80;35.70
79711;DHT22;69465;51.630;6.570;2023-04-29T15:09:34;18.70;36.30
79711;DHT22;69465;51.630;6.570;2023-04-29T15:12:01;18.60;38.30
79711;DHT22;69465;51.630;6.570;2023-04-29T15:14:27;18.50;37.60
79711;DHT22;69465;51.630;6.570;2023-04-29T15:16:54;18.40;35.30
79711;DHT22;69465;51.630;6.570;2023-04-29T15:19:20;18.40;35.80
79711;DHT22;69465;51.630;6.570;2023-04-29T15:21:47;18.50;36.70
79711;DHT22;69465;51.630;6.570;2023-04-29T15:24:14;18.50;37.20
79711;DHT22;69465;51.630;6.570;2023-04-29T15:26:40;18.50;36.90
79711;DHT22;69465;51.630;6.570;2023-04-29T15:29:07;18.60;35.50
79711;DHT22;69465;51.630;6.570;2023-04-29T15:31:34;18.80;36.50
79711;DHT22;69465;51.630;6.570;2023-04-29T15:34:00;18.70;33.80
79711;DHT22;69465;51.630;6.570;2023-04-29T15:36:29;18.70;35.40
79711;DHT22;69465;51.630;6.570;2023-04-29T15:38:56;18.80;35.10
79711;DHT22;69465;51.630;6.570;2023-04-29T15:41:23;18.70;35.00
79711;DHT22;69465;51.630;6.570;2023-04-29T15:43:50;18.60;36.20
79711;DHT22;69465;51.630;6.570;2023-04-29T15:46:16;18.50;34.10
79711;DHT22;69465;51.630;6.570;2023-04-29T15:48:43;18.50;36.90
79711;DHT22;69465;51.630;6.570;2023-04-29T15:51:10;18.40;37.60
79711;DHT22;69465;51.630;6.570;2023-04-29T15:53:37;18.40;37.90
79711;DHT22;69465;51.630;6.570;2023-04-29T15:56:04;18.30;38.00
79711;DHT22;69465;51.630;6.570;2023-04-29T15:58:30;18.10;37.80